La Verne, CA (91750)

5:25 AM PDT on May 03, 2015 (GMT -0700)
KCALAVER3 | | Change Station
CLOSE
Current Station
Personal Weather Station
Location: La Verne, CA
Elevation: 1253 ft
Nearby Weather Stations

Elev 1253 ft 34.13 °N, 117.77 °W | Updated 19 seconds ago

Clear
Clear
55.8 °F
Feels Like 55.8 °F
N
0.0
Wind Variable Wind from NW
Gusts 0.0 mph

Today
High -- | Low -- °F
--% Chance of Precip.
Yesterday
High -- | Low -- °F
Precip. -- in
5:59 AM 7:36 PM
Full, 100% visible
Pressure 29.85 in
Visibility 8.0 miles
Clouds Few 1200 ft
Dew Point 43 °F
Humidity 62%
Rainfall 0.00 in
Snow Depth Not available.
UV 0 out of 12
Pollen 4.90 out of 12
Air Quality Not available.
Flu Activity Sporadic
METAR KONT 031153Z 29003KT 8SM FEW012 13/11 A2988 RMK AO2 SLP107 T01280111 10167 20128 58002

More Conditions Fewer Conditions

Pressure 29.85 in
Visibility 8.0 miles
Clouds Few 1200 ft
Dew Point 43 °F
Humidity 62%
Rainfall 0.00 in
Snow Depth Not available.
UV 0 out of 12
Pollen 4.90 out of 12
Air Quality Not available.
Flu Activity Sporadic
METAR KONT 031153Z 29003KT 8SM FEW012 13/11 A2988 RMK AO2 SLP107 T01280111 10167 20128 58002

More Conditions Fewer Conditions

Nepal has a long way to go to dig out and rebuild from a devastating earthquake. We have teamed up with several charities and organizations to make contributing to the relief effort as easy as possible.
How you can help: Portlight Strategies | Red Cross

10-Day Weather Forecast

Almanac

Astronomy

May. 03, 2015 Rise Set
Actual Time
Civil Twilight
Nautical Twilight
Astronomical Twilight
Moon
Length of Visible Light
Length of Day
Tomorrow will be .
, % of the Moon is Illuminated

Today's Extremes

State Highs State Lows

Community

WunderPhotos

Upload Photos

1,818,198 photos uploaded!

WunderBlogs® & News

Nearby

Air Quality

  Air Quality AQ Index Pollutant
Not available.

Snow Depth

Station Depth Elevation

Earthquake Activity

City Distance Mag. Time & Date
Minimum magnitude displayed is 2.5.

Coastal Water Temperatures

Place Temperature

Stations

Nearby Weather Stations

Station Location Temp. Windchill Dew Point Humidity Wind Precip. Elev Updated Type